Time;durP1;ratioP1;P1;durP2;ratioP2;P2;SDS_P1;SDS_P2;PMS_P1;PMS_P2;Temp;Humidity;BMP_temperature;BMP_pressure;BME280_temperature;BME280_humidity;BME280_pressure;Samples;Min_cycle;Max_cycle;Signal;HPM_P1;HPM_P2
2023/05/17 00:01:45;;;;;;;3.20;3.00;;;;;;;11.91;nan;98801.66;6137237;23;20197;-88
2023/05/17 00:04:12;;;;;;;2.70;2.50;;;;;;;11.87;nan;98805.09;6137043;23;20685;-86
2023/05/17 00:06:39;;;;;;;3.07;2.87;;;;;;;11.93;nan;98809.47;6136833;23;20191;-87
2023/05/17 00:09:07;;;;;;;3.13;2.93;;;;;;;11.80;nan;98810.63;6137308;23;20178;-88
2023/05/17 00:11:34;;;;;;;3.13;2.93;;;;;;;11.90;nan;98812.63;6136897;23;20224;-88
2023/05/17 00:14:01;;;;;;;2.83;2.63;;;;;;;11.74;nan;98824.22;6137042;23;20617;-87
2023/05/17 00:16:28;;;;;;;3.37;3.07;;;;;;;11.79;nan;98810.88;6137156;23;20190;-86
2023/05/17 00:18:54;;;;;;;3.10;2.80;;;;;;;11.82;nan;98826.47;6136838;23;20212;-87
2023/05/17 00:21:21;;;;;;;2.93;2.73;;;;;;;11.82;nan;98821.94;6161601;23;20181;-86
2023/05/17 00:23:48;;;;;;;3.20;3.00;;;;;;;11.77;nan;98813.00;6136577;23;20208;-87
2023/05/17 00:26:15;;;;;;;3.20;2.90;;;;;;;11.79;nan;98821.63;6136768;23;20206;-87
2023/05/17 00:28:42;;;;;;;3.43;3.13;;;;;;;11.71;nan;98816.66;6136420;23;20272;-87
2023/05/17 00:31:09;;;;;;;3.40;3.10;;;;;;;11.67;nan;98813.63;6136386;23;20181;-86
2023/05/17 00:33:36;;;;;;;3.40;3.10;;;;;;;11.61;nan;98820.00;6112037;23;20633;-87
2023/05/17 00:36:04;;;;;;;3.03;2.83;;;;;;;11.61;nan;98819.19;6136713;23;20178;-87
2023/05/17 00:38:32;;;;;;;3.10;2.80;;;;;;;11.54;nan;98822.03;6136034;23;20222;-86
2023/05/17 00:41:00;;;;;;;2.50;2.33;;;;;;;11.71;nan;98822.81;6136643;23;20177;-88
2023/05/17 00:43:27;;;;;;;2.87;2.67;;;;;;;11.58;nan;98822.34;6112040;23;20170;-87
2023/05/17 00:45:54;;;;;;;3.30;2.97;;;;;;;11.51;nan;98825.19;6112385;23;20170;-88
2023/05/17 00:48:24;;;;;;;2.80;2.50;;;;;;;11.41;nan;98833.91;6111870;23;20170;-87
2023/05/17 00:50:52;;;;;;;2.90;2.70;;;;;;;11.45;nan;98832.34;6136832;23;20174;-86
2023/05/17 00:53:19;;;;;;;2.60;2.40;;;;;;;11.45;nan;98835.03;6135916;23;20224;-86
2023/05/17 00:55:49;;;;;;;2.70;2.50;;;;;;;11.48;nan;98828.34;6136763;23;20186;-88
2023/05/17 00:58:16;;;;;;;3.03;2.67;;;;;;;11.47;nan;98842.84;6135849;23;20174;-87
2023/05/17 01:00:44;;;;;;;2.70;2.50;;;;;;;11.36;nan;98843.72;6112992;23;20178;-87
2023/05/17 01:03:11;;;;;;;2.40;2.20;;;;;;;11.36;nan;98841.03;6111398;23;20194;-88
2023/05/17 01:05:38;;;;;;;2.50;2.30;;;;;;;11.46;nan;98835.84;6136276;23;20260;-87
2023/05/17 01:08:05;;;;;;;2.33;2.13;;;;;;;11.42;nan;98848.94;6111614;23;20649;-86
2023/05/17 01:11:06;;;;;;;2.27;2.10;;;;;;;11.42;nan;98856.19;6136375;23;20170;-87
2023/05/17 01:13:41;;;;;;;2.17;2.07;;;;;;;11.36;nan;98849.91;6160811;23;20170;-86
2023/05/17 01:16:36;;;;;;;2.37;2.00;;;;;;;11.37;nan;98856.09;6136447;23;20683;-86
2023/05/17 01:19:21;;;;;;;1.77;1.67;;;;;;;11.37;nan;98856.09;6146051;23;20309;-87
2023/05/17 01:22:02;;;;;;;1.50;1.40;;;;;;;11.28;nan;98860.22;6159980;23;20184;-83
2023/05/17 01:24:47;;;;;;;1.87;1.40;;;;;;;11.26;nan;98856.97;6110926;23;20170;-86
2023/05/17 01:27:14;;;;;;;1.83;1.70;;;;;;;11.31;nan;98862.41;6111400;23;20166;-87
2023/05/17 01:29:43;;;;;;;1.60;1.50;;;;;;;11.27;nan;98856.72;6135956;23;20177;-87
2023/05/17 01:32:12;;;;;;;1.70;1.50;;;;;;;11.26;nan;98862.31;6111547;23;20601;-87
2023/05/17 01:34:40;;;;;;;1.70;1.60;;;;;;;11.26;nan;98865.81;6111616;23;20174;-86
2023/05/17 01:37:07;;;;;;;1.50;1.40;;;;;;;11.26;nan;98862.31;6135995;23;20241;-89
2023/05/17 01:39:35;;;;;;;1.50;1.40;;;;;;;11.20;nan;98872.16;6136231;23;20175;-87
2023/05/17 01:42:07;;;;;;;1.70;1.60;;;;;;;11.17;nan;98878.00;6112206;23;20224;-85
2023/05/17 01:44:44;;;;;;;1.50;1.40;;;;;;;11.12;nan;98877.91;6111794;23;20241;-88
2023/05/17 01:47:23;;;;;;;1.40;1.30;;;;;;;11.16;nan;98886.28;6111495;23;20222;-86
2023/05/17 01:49:53;;;;;;;2.00;1.20;;;;;;;11.00;nan;98882.53;6135888;23;20166;-87
2023/05/17 01:52:46;;;;;;;1.60;1.50;;;;;;;10.90;nan;98885.00;6135711;23;20166;-86
2023/05/17 01:55:51;;;;;;;1.40;1.30;;;;;;;11.01;nan;98881.47;6148929;23;20687;-87
2023/05/17 01:58:24;;;;;;;1.30;1.20;;;;;;;11.08;nan;98892.84;6136682;23;20193;-88
2023/05/17 02:00:54;;;;;;;1.37;1.27;;;;;;;11.14;nan;98902.63;6111684;23;20174;-89
2023/05/17 02:03:21;;;;;;;1.40;1.10;;;;;;;10.98;nan;98895.34;6135415;23;20245;-89
2023/05/17 02:05:51;;;;;;;1.20;1.10;;;;;;;10.90;nan;98898.41;6112588;23;20684;-88
2023/05/17 02:08:18;;;;;;;1.30;1.20;;;;;;;10.94;nan;98894.19;6135908;23;20637;-87
2023/05/17 02:10:44;;;;;;;1.30;1.20;;;;;;;10.90;nan;98890.38;6111997;23;20174;-88
2023/05/17 02:13:11;;;;;;;0.97;0.90;;;;;;;10.95;nan;98891.28;6135558;23;20170;-87
2023/05/17 02:15:38;;;;;;;1.20;1.10;;;;;;;10.83;nan;98890.50;6136779;23;20163;-89
2023/05/17 02:18:05;;;;;;;1.37;1.10;;;;;;;10.89;nan;98902.13;6160207;23;20169;-89
2023/05/17 02:20:32;;;;;;;1.30;1.20;;;;;;;10.79;nan;98891.22;6135817;23;20192;-88
2023/05/17 02:22:59;;;;;;;1.70;1.23;;;;;;;10.79;nan;98891.22;6111454;23;20170;-88
2023/05/17 02:25:25;;;;;;;1.10;1.00;;;;;;;10.78;nan;98889.63;6111335;23;20256;-86
2023/05/17 02:27:52;;;;;;;0.90;0.90;;;;;;;10.82;nan;98891.56;6136068;23;20178;-88
2023/05/17 02:30:21;;;;;;;1.23;1.10;;;;;;;10.77;nan;98898.69;6111221;23;21035;-86
2023/05/17 02:32:50;;;;;;;1.03;0.90;;;;;;;10.80;nan;98892.84;6087569;23;20228;-88
2023/05/17 02:35:17;;;;;;;1.10;1.00;;;;;;;10.78;nan;98892.28;6136014;23;20162;-87
2023/05/17 02:37:44;;;;;;;1.20;1.10;;;;;;;10.72;nan;98902.09;6136079;23;20182;-87
2023/05/17 02:40:11;;;;;;;1.00;0.83;;;;;;;10.73;nan;98905.59;6111521;23;20174;-87
2023/05/17 02:42:38;;;;;;;0.90;0.90;;;;;;;10.77;nan;98901.38;6111665;23;20174;-88
2023/05/17 02:45:06;;;;;;;1.63;1.07;;;;;;;10.74;nan;98907.19;6136200;23;20170;-87
2023/05/17 02:47:32;;;;;;;0.70;0.70;;;;;;;10.74;nan;98902.66;6136436;23;20170;-87
2023/05/17 02:49:59;;;;;;;1.00;1.00;;;;;;;10.64;nan;98896.28;6111444;23;20178;-86
2023/05/17 02:52:26;;;;;;;1.07;1.00;;;;;;;10.68;nan;98910.84;6111968;23;20268;-88
2023/05/17 02:54:53;;;;;;;1.30;1.20;;;;;;;10.63;nan;98906.19;6136919;23;20175;-87
2023/05/17 02:57:21;;;;;;;1.40;1.30;;;;;;;10.66;nan;98900.34;6112044;23;20217;-86
2023/05/17 02:59:48;;;;;;;1.60;1.50;;;;;;;10.63;nan;98900.03;6114787;23;20174;-88
2023/05/17 03:02:15;;;;;;;1.40;1.30;;;;;;;10.70;nan;98914.06;6136018;23;20178;-88
2023/05/17 03:04:42;;;;;;;1.50;1.40;;;;;;;10.52;nan;98913.19;6113242;23;20175;-87
2023/05/17 03:07:10;;;;;;;1.50;1.40;;;;;;;10.60;nan;98915.50;6136539;23;20210;-86
2023/05/17 03:09:38;;;;;;;1.70;1.60;;;;;;;10.67;nan;98923.41;6136634;23;20183;-86
2023/05/17 03:12:05;;;;;;;1.50;1.40;;;;;;;10.58;nan;98917.63;6113191;23;20257;-87
2023/05/17 03:14:33;;;;;;;1.57;1.47;;;;;;;10.58;nan;98941.72;6115914;23;20170;-88
2023/05/17 03:17:00;;;;;;;1.40;1.30;;;;;;;10.57;nan;98939.28;6140472;23;20190;-87
2023/05/17 03:19:28;;;;;;;2.07;1.47;;;;;;;10.61;nan;98945.78;6137038;23;20297;-88
2023/05/17 03:21:55;;;;;;;1.50;1.40;;;;;;;10.51;nan;98943.69;6138708;23;20250;-86
2023/05/17 03:24:22;;;;;;;1.43;1.33;;;;;;;10.55;nan;98944.84;6136980;23;20181;-86
2023/05/17 03:26:49;;;;;;;1.80;1.57;;;;;;;10.59;nan;98959.41;6111427;23;20170;-87
2023/05/17 03:29:16;;;;;;;1.43;1.33;;;;;;;10.69;nan;98974.88;6135841;23;20170;-88
2023/05/17 03:31:43;;;;;;;1.47;1.37;;;;;;;10.63;nan;98965.13;6135839;23;20175;-86
2023/05/17 03:34:11;;;;;;;1.50;1.40;;;;;;;10.60;nan;98970.94;6112575;23;20174;-88
2023/05/17 03:36:39;;;;;;;1.97;1.50;;;;;;;10.60;nan;98973.63;6138928;23;20186;-87
2023/05/17 03:39:06;;;;;;;1.67;1.57;;;;;;;10.56;nan;98985.84;6112097;23;20208;-88
2023/05/17 03:41:35;;;;;;;2.40;1.67;;;;;;;10.56;nan;98984.00;6137219;23;20177;-87
2023/05/17 03:44:04;;;;;;;1.60;1.50;;;;;;;10.52;nan;98993.56;6136470;23;20173;-87
2023/05/17 03:46:32;;;;;;;1.70;1.60;;;;;;;10.53;nan;98992.50;6113800;23;20170;-87
2023/05/17 03:48:59;;;;;;;1.63;1.53;;;;;;;10.40;nan;98998.13;6112772;23;20201;-88
2023/05/17 03:51:26;;;;;;;1.67;1.57;;;;;;;10.52;nan;99003.44;6137510;23;20170;-86
2023/05/17 03:53:57;;;;;;;2.30;1.53;;;;;;;10.48;nan;99008.47;6114807;23;20175;-88
2023/05/17 03:56:25;;;;;;;1.60;1.50;;;;;;;10.50;nan;99018.91;6115842;23;20171;-89
2023/05/17 03:58:52;;;;;;;1.70;1.60;;;;;;;10.48;nan;99024.53;6114760;23;20217;-88
2023/05/17 04:01:21;;;;;;;1.77;1.67;;;;;;;10.39;nan;99035.81;6137308;23;20170;-89
2023/05/17 04:03:47;;;;;;;1.90;1.80;;;;;;;10.31;nan;99028.16;6113720;23;20171;-88
2023/05/17 04:06:14;;;;;;;2.03;1.80;;;;;;;10.26;nan;99028.84;6140315;23;20190;-88
2023/05/17 04:08:42;;;;;;;1.93;1.83;;;;;;;10.27;nan;99037.66;6114275;23;20171;-88
2023/05/17 04:11:11;;;;;;;1.70;1.60;;;;;;;10.27;nan;99033.13;6114169;23;20166;-87
2023/05/17 04:13:41;;;;;;;1.73;1.63;;;;;;;10.19;nan;99038.84;6140194;23;20178;-88
2023/05/17 04:16:09;;;;;;;1.87;1.70;;;;;;;14.08;nan;99053.41;6142288;23;20170;-88
2023/05/17 04:18:39;;;;;;;2.20;1.90;;;;;;;10.70;nan;99053.38;6139206;23;20166;-86
2023/05/17 04:21:07;;;;;;;1.70;1.60;;;;;;;10.38;nan;99052.94;6115198;23;20201;-88
2023/05/17 04:23:35;;;;;;;1.80;1.70;;;;;;;10.22;nan;99051.75;6114936;23;20625;-86
2023/05/17 04:26:03;;;;;;;1.80;1.70;;;;;;;10.20;nan;99053.84;6164467;23;20198;-88
2023/05/17 04:28:33;;;;;;;1.60;1.50;;;;;;;10.18;nan;99066.63;6116283;23;20178;-87
2023/05/17 04:31:06;;;;;;;2.13;1.70;;;;;;;10.14;nan;99066.25;6139593;23;20174;-91
2023/05/17 04:33:33;;;;;;;1.93;1.50;;;;;;;10.12;nan;99068.34;6114724;23;20158;-86
2023/05/17 04:36:01;;;;;;;1.80;1.70;;;;;;;10.01;nan;99071.81;6113928;23;20170;-85
2023/05/17 04:38:29;;;;;;;2.13;1.60;;;;;;;10.02;nan;99083.34;6114271;23;20292;-88
2023/05/17 04:41:01;;;;;;;1.50;1.40;;;;;;;9.97;nan;99083.22;6116601;23;20227;-88
2023/05/17 04:43:31;;;;;;;2.67;1.50;;;;;;;9.94;nan;99078.31;6122698;23;20168;-89
2023/05/17 04:45:59;;;;;;;1.60;1.50;;;;;;;9.83;nan;99087.13;6119693;23;20230;-89
2023/05/17 04:48:31;;;;;;;1.50;1.40;;;;;;;9.94;nan;99091.69;6145675;23;20216;-89
2023/05/17 04:51:03;;;;;;;1.63;1.40;;;;;;;9.73;nan;99109.06;6123589;23;20193;-87
2023/05/17 04:53:31;;;;;;;1.10;1.10;;;;;;;9.76;nan;99119.31;6145489;23;20178;-88
2023/05/17 04:56:03;;;;;;;1.43;1.33;;;;;;;9.88;nan;99125.53;6143526;23;20170;-87
2023/05/17 04:58:30;;;;;;;2.43;1.60;;;;;;;9.85;nan;99120.63;6118865;23;20178;-89
2023/05/17 05:01:00;;;;;;;1.50;1.40;;;;;;;9.84;nan;99119.03;6145476;23;20170;-89
2023/05/17 05:03:27;;;;;;;2.63;1.60;;;;;;;9.91;nan;99110.88;6121936;23;20174;-87
2023/05/17 05:05:54;;;;;;;1.40;1.30;;;;;;;9.88;nan;99114.84;6119827;23;20186;-86
2023/05/17 05:08:22;;;;;;;2.10;1.47;;;;;;;9.83;nan;99112.03;6147821;23;20200;-89
2023/05/17 05:10:51;;;;;;;2.07;1.67;;;;;;;9.84;nan;99124.38;6123029;23;20236;-90
2023/05/17 05:13:22;;;;;;;2.67;1.40;;;;;;;9.99;nan;99134.63;6148015;23;20163;-88
2023/05/17 05:15:50;;;;;;;1.30;1.20;;;;;;;9.84;nan;99131.56;6120738;23;20177;-88
2023/05/17 05:18:17;;;;;;;1.53;1.43;;;;;;;9.92;nan;99126.72;6146354;23;20232;-89
2023/05/17 05:20:47;;;;;;;1.73;1.43;;;;;;;9.83;nan;99130.75;6121398;23;20166;-89
2023/05/17 05:23:14;;;;;;;1.83;1.40;;;;;;;9.85;nan;99135.88;6122284;23;20166;-88
2023/05/17 05:25:43;;;;;;;2.30;1.60;;;;;;;9.90;nan;99150.19;6135198;23;20200;-90
2023/05/17 05:28:13;;;;;;;1.50;1.40;;;;;;;9.86;nan;99146.34;6195807;23;20166;-89
2023/05/17 05:30:42;;;;;;;1.70;1.60;;;;;;;9.70;nan;99153.13;6172031;23;20187;-88
2023/05/17 05:33:12;;;;;;;2.70;1.70;;;;;;;9.72;nan;99159.09;6170445;23;20250;-88
2023/05/17 05:35:39;;;;;;;1.97;1.60;;;;;;;9.60;nan;99171.59;6143980;23;20173;-89
2023/05/17 05:38:10;;;;;;;6.97;3.80;;;;;;;9.59;nan;99163.78;6169820;23;20241;-89
2023/05/17 05:40:40;;;;;;;2.27;1.80;;;;;;;9.63;nan;99168.47;6172173;23;20154;-89
2023/05/17 05:43:09;;;;;;;2.13;1.50;;;;;;;9.62;nan;99171.34;6171879;23;20166;-88
2023/05/17 05:45:36;;;;;;;2.57;1.67;;;;;;;9.60;nan;99173.44;6165515;23;20179;-88
2023/05/17 05:48:06;;;;;;;1.90;1.50;;;;;;;9.58;nan;99175.50;6141551;23;20613;-89
2023/05/17 05:50:34;;;;;;;3.97;1.60;;;;;;;9.53;nan;99178.03;6144820;23;20193;-90
2023/05/17 05:53:08;;;;;;;2.73;1.60;;;;;;;9.64;nan;99186.16;6192356;23;20163;-89
2023/05/17 05:55:48;;;;;;;2.73;1.67;;;;;;;9.61;nan;99186.56;6145747;23;20178;-87
2023/05/17 05:58:17;;;;;;;2.53;1.50;;;;;;;9.65;nan;99185.09;6165367;23;20193;-87
2023/05/17 06:00:45;;;;;;;3.67;1.60;;;;;;;9.73;nan;99155.38;6139912;23;20166;-89
2023/05/17 06:03:11;;;;;;;2.67;1.47;;;;;;;9.65;nan;99189.66;6139467;23;20175;-90
2023/05/17 06:05:39;;;;;;;2.60;1.30;;;;;;;9.42;nan;99201.00;6142217;23;20194;-86
2023/05/17 06:08:06;;;;;;;2.67;1.60;;;;;;;9.69;nan;99198.84;6139182;23;20190;-90
2023/05/17 06:10:33;;;;;;;1.93;1.40;;;;;;;9.64;nan;99199.53;6165154;23;20166;-90
2023/05/17 06:13:00;;;;;;;2.30;1.57;;;;;;;9.55;nan;99197.38;6140590;23;20221;-89
2023/05/17 06:15:27;;;;;;;2.83;1.57;;;;;;;9.51;nan;99210.38;6140819;23;20175;-90
2023/05/17 06:17:57;;;;;;;1.80;1.60;;;;;;;9.65;nan;99216.38;6141258;23;20189;-88
2023/05/17 06:20:24;;;;;;;3.57;1.73;;;;;;;9.69;nan;99212.22;6139379;23;20173;-88
2023/05/17 06:22:51;;;;;;;3.27;1.60;;;;;;;9.78;nan;99210.06;6139691;23;20610;-88
2023/05/17 06:25:19;;;;;;;3.17;1.70;;;;;;;9.81;nan;99202.38;6163622;23;20205;-90
2023/05/17 06:27:48;;;;;;;2.97;1.80;;;;;;;9.75;nan;99222.03;6164727;23;20162;-86
2023/05/17 06:30:15;;;;;;;3.13;1.60;;;;;;;9.47;nan;99217.19;6164964;23;20181;-87
2023/05/17 06:32:44;;;;;;;2.60;1.80;;;;;;;9.54;nan;99225.97;6189305;23;20178;-89
2023/05/17 06:35:14;;;;;;;2.50;1.90;;;;;;;9.42;nan;99233.09;6165305;23;20195;-87
2023/05/17 06:37:42;;;;;;;1.87;1.77;;;;;;;9.47;nan;99245.81;6166767;23;20192;-88
2023/05/17 06:40:11;;;;;;;2.27;1.97;;;;;;;9.65;nan;99251.16;6166692;23;20178;-88
2023/05/17 06:42:43;;;;;;;4.50;2.00;;;;;;;9.47;nan;99245.81;6144277;23;20695;-87
2023/05/17 06:45:11;;;;;;;2.33;2.13;;;;;;;9.51;nan;99245.13;6145322;23;20167;-91
2023/05/17 06:47:38;;;;;;;3.60;2.30;;;;;;;9.54;nan;99239.34;6188041;23;20173;-88
2023/05/17 06:50:06;;;;;;;2.30;2.10;;;;;;;9.63;nan;99262.06;6148228;23;20260;-79
2023/05/17 06:52:34;;;;;;;4.03;2.40;;;;;;;9.64;nan;99252.19;6185368;23;20150;-80
2023/05/17 06:55:01;;;;;;;2.97;1.90;;;;;;;9.62;nan;99264.97;6190463;23;20163;-79
2023/05/17 06:57:27;;;;;;;2.73;1.93;;;;;;;9.47;nan;99267.19;6163545;23;20209;-80
2023/05/17 06:59:54;;;;;;;2.23;2.03;;;;;;;9.45;nan;99275.44;6190334;23;20159;-79
2023/05/17 07:02:21;;;;;;;2.30;2.10;;;;;;;9.38;nan;99279.22;6189933;23;20204;-82
2023/05/17 07:04:48;;;;;;;2.47;2.10;;;;;;;9.23;nan;99279.56;6189940;23;20162;-81
2023/05/17 07:07:15;;;;;;;3.27;2.33;;;;;;;9.26;nan;99308.50;6189520;23;20169;-81
2023/05/17 07:09:41;;;;;;;2.27;2.07;;;;;;;9.55;nan;99312.38;6189309;23;20159;-82
2023/05/17 07:12:08;;;;;;;4.67;2.20;;;;;;;9.57;nan;99316.44;6188818;23;20164;-82
2023/05/17 07:14:35;;;;;;;5.17;2.50;;;;;;;9.53;nan;99309.09;6189476;23;20158;-82
2023/05/17 07:17:01;;;;;;;3.40;2.10;;;;;;;9.57;nan;99312.94;6189851;23;20166;-82
2023/05/17 07:19:28;;;;;;;3.97;2.60;;;;;;;9.54;nan;99308.06;6190517;23;20500;-81
2023/05/17 07:21:55;;;;;;;3.07;2.50;;;;;;;9.51;nan;99303.16;6192070;23;20608;-82
2023/05/17 07:24:22;;;;;;;2.50;2.30;;;;;;;9.50;nan;99320.22;6191129;23;20164;-82
2023/05/17 07:26:48;;;;;;;3.23;2.70;;;;;;;9.47;nan;99326.03;6191569;23;20615;-81
2023/05/17 07:29:17;;;;;;;3.73;2.57;;;;;;;9.43;nan;99341.66;6165640;23;20179;-82
2023/05/17 07:31:44;;;;;;;3.10;2.80;;;;;;;9.53;nan;99339.31;6191367;23;20205;-81
2023/05/17 07:34:12;;;;;;;5.47;3.60;;;;;;;9.32;nan;99341.56;6190411;23;20170;-82
2023/05/17 07:36:41;;;;;;;4.67;3.10;;;;;;;9.41;nan;99333.06;6191215;23;20228;-80
2023/05/17 07:39:08;;;;;;;3.60;3.30;;;;;;;9.43;nan;99330.16;6190317;23;20188;-81
2023/05/17 07:41:35;;;;;;;7.50;5.17;;;;;;;9.41;nan;99310.84;6190943;23;20170;-80
2023/05/17 07:44:02;;;;;;;5.13;4.03;;;;;;;9.55;nan;99307.03;6214625;23;20172;-82
2023/05/17 07:46:29;;;;;;;6.27;3.60;;;;;;;9.65;nan;99301.97;6191130;23;20505;-82
2023/05/17 07:48:55;;;;;;;4.17;3.37;;;;;;;17.46;nan;99306.28;6190323;23;20169;-80
2023/05/17 07:51:24;;;;;;;4.17;2.80;;;;;;;10.71;nan;99298.84;6218779;23;20189;-79
2023/05/17 07:53:51;;;;;;;4.63;2.87;;;;;;;9.69;nan;99295.97;6220256;23;20225;-82
2023/05/17 07:56:17;;;;;;;2.90;2.70;;;;;;;9.62;nan;99291.72;6219980;23;20162;-82
2023/05/17 07:58:44;;;;;;;4.17;2.73;;;;;;;9.85;nan;99312.44;6193949;23;20188;-82
2023/05/17 08:01:11;;;;;;;2.77;2.57;;;;;;;9.91;nan;99323.09;6220993;23;20504;-82
2023/05/17 08:03:46;;;;;;;2.70;2.50;;;;;;;9.94;nan;99317.28;6221943;23;20491;-81
2023/05/17 08:06:14;;;;;;;2.47;2.27;;;;;;;10.02;nan;99322.38;6221011;23;20177;-80
2023/05/17 08:08:49;;;;;;;3.60;2.70;;;;;;;10.05;nan;99321.91;6229868;23;20161;-83
2023/05/17 08:11:17;;;;;;;3.90;2.80;;;;;;;10.06;nan;99322.72;6223093;23;20173;-82
2023/05/17 08:13:44;;;;;;;3.10;2.90;;;;;;;10.05;nan;99329.94;6204470;23;20220;-82
2023/05/17 08:16:11;;;;;;;2.97;2.50;;;;;;;10.04;nan;99327.47;6206710;23;20168;-82
2023/05/17 08:18:41;;;;;;;3.43;2.70;;;;;;;10.01;nan;99331.44;6208497;23;20201;-83
2023/05/17 08:21:08;;;;;;;3.27;2.97;;;;;;;9.94;nan;99335.19;6175861;23;20169;-82
2023/05/17 08:23:35;;;;;;;3.67;2.70;;;;;;;10.03;nan;99337.38;6206080;23;20228;-83
2023/05/17 08:26:03;;;;;;;3.30;2.63;;;;;;;9.94;nan;99340.56;6205345;23;20165;-81
2023/05/17 08:28:33;;;;;;;4.23;2.47;;;;;;;10.06;nan;99338.78;6202172;23;20169;-81
2023/05/17 08:31:00;;;;;;;2.97;2.53;;;;;;;10.00;nan;99334.31;6201824;23;20233;-80
2023/05/17 08:33:27;;;;;;;3.13;2.50;;;;;;;10.11;nan;99330.91;6226623;23;20161;-81
2023/05/17 08:35:56;;;;;;;2.50;2.30;;;;;;;9.94;nan;99343.22;6197699;23;20161;-81
2023/05/17 08:38:23;;;;;;;2.73;2.03;;;;;;;9.84;nan;99342.94;6223002;23;20189;-80
2023/05/17 08:40:53;;;;;;;4.20;3.37;;;;;;;10.07;nan;99353.81;6223500;23;20214;-80
2023/05/17 08:43:23;;;;;;;4.30;3.07;;;;;;;10.31;nan;99350.25;6200322;23;20213;-81
2023/05/17 08:45:53;;;;;;;3.27;2.00;;;;;;;10.23;nan;99353.22;6225902;23;20138;-83
2023/05/17 08:48:20;;;;;;;2.60;1.97;;;;;;;10.07;nan;99353.81;6200350;23;20165;-80
2023/05/17 08:50:49;;;;;;;4.47;2.83;;;;;;;10.09;nan;99354.41;6200007;23;20280;-79
2023/05/17 08:53:16;;;;;;;4.83;2.80;;;;;;;9.77;nan;99358.22;6223942;23;20158;-81
2023/05/17 08:55:48;;;;;;;4.30;3.30;;;;;;;9.80;nan;99344.44;6225216;23;20163;-80
2023/05/17 08:58:19;;;;;;;4.33;3.67;;;;;;;9.79;nan;99342.78;6225980;23;20512;-81
2023/05/17 09:00:47;;;;;;;3.80;3.00;;;;;;;9.71;nan;99336.69;6228611;23;20158;-83
2023/05/17 09:03:17;;;;;;;4.10;3.20;;;;;;;9.96;nan;99349.19;6202275;23;20157;-82
2023/05/17 09:05:44;;;;;;;7.53;4.90;;;;;;;10.07;nan;99341.25;6198700;23;20164;-82
2023/05/17 09:08:12;;;;;;;4.97;2.70;;;;;;;10.11;nan;99361.19;6224088;23;20572;-82
2023/05/17 09:10:41;;;;;;;3.83;2.70;;;;;;;10.29;nan;99359.56;6196792;23;20261;-82
2023/05/17 09:13:11;;;;;;;3.80;2.20;;;;;;;10.31;nan;99349.47;6193545;23;20174;-81
2023/05/17 09:15:41;;;;;;;3.97;2.17;;;;;;;10.27;nan;99357.09;6193624;23;20176;-80
2023/05/17 09:18:10;;;;;;;3.07;2.20;;;;;;;10.22;nan;99361.50;6193779;23;20184;-82
2023/05/17 09:20:38;;;;;;;4.00;2.00;;;;;;;10.14;nan;99371.44;6219093;23;20227;-82
2023/05/17 09:23:08;;;;;;;4.30;1.80;;;;;;;10.07;nan;99373.38;6221143;23;20165;-80
2023/05/17 09:25:36;;;;;;;3.43;1.50;;;;;;;10.21;nan;99370.56;6220390;23;20165;-80
2023/05/17 09:28:04;;;;;;;4.53;1.90;;;;;;;10.23;nan;99380.00;6220151;23;20166;-80
2023/05/17 09:30:33;;;;;;;4.17;2.10;;;;;;;10.32;nan;99388.56;6219896;23;20180;-80
2023/05/17 09:33:05;;;;;;;3.13;1.83;;;;;;;9.93;nan;99387.94;6219488;23;20162;-80
2023/05/17 09:35:34;;;;;;;2.60;2.00;;;;;;;9.95;nan;99401.06;6220053;23;20150;-82
2023/05/17 09:38:11;;;;;;;1.77;1.60;;;;;;;10.12;nan;99397.59;6220059;23;20181;-82
2023/05/17 09:40:39;;;;;;;4.17;1.60;;;;;;;9.92;nan;99396.16;6220763;23;20157;-82
2023/05/17 09:43:06;;;;;;;4.37;1.80;;;;;;;10.12;nan;99407.50;6219308;23;20162;-82
2023/05/17 09:45:33;;;;;;;2.40;1.60;;;;;;;10.13;nan;99404.59;6193396;23;20157;-81
2023/05/17 09:48:26;;;;;;;2.03;1.57;;;;;;;9.91;nan;99394.53;6220664;23;20162;-82
2023/05/17 09:50:53;;;;;;;3.93;1.70;;;;;;;10.16;nan;99406.06;6190358;23;20226;-82
2023/05/17 09:53:26;;;;;;;5.70;1.77;;;;;;;10.14;nan;99400.06;6220266;23;20169;-81
2023/05/17 09:55:55;;;;;;;4.10;1.80;;;;;;;10.11;nan;99397.84;6220030;23;20149;-82
2023/05/17 09:58:23;;;;;;;3.40;1.60;;;;;;;10.24;nan;99413.78;6219300;23;20181;-82
2023/05/17 10:00:55;;;;;;;2.93;1.60;;;;;;;10.10;nan;99421.09;6219053;23;20625;-82
2023/05/17 10:03:22;;;;;;;4.57;1.53;;;;;;;10.19;nan;99428.88;6193445;23;20160;-82
2023/05/17 10:05:53;;;;;;;2.83;1.70;;;;;;;10.10;nan;99431.00;6219664;23;20154;-80
2023/05/17 10:08:22;;;;;;;2.33;1.50;;;;;;;10.05;nan;99428.16;6194407;23;20160;-80
2023/05/17 10:10:51;;;;;;;4.33;1.50;;;;;;;10.18;nan;99429.91;6144182;23;20177;-80
2023/05/17 10:13:22;;;;;;;5.20;1.47;;;;;;;10.03;nan;99430.25;6194018;23;20166;-80
2023/05/17 10:15:50;;;;;;;2.93;1.60;;;;;;;9.81;nan;99431.66;6193982;23;20176;-82
2023/05/17 10:18:17;;;;;;;2.77;1.40;;;;;;;10.00;nan;99426.13;6219806;23;20180;-82
2023/05/17 10:20:44;;;;;;;2.83;1.60;;;;;;;9.96;nan;99432.97;6192497;23;20161;-82
2023/05/17 10:23:12;;;;;;;2.83;1.60;;;;;;;10.01;nan;99424.28;6190431;23;20157;-83
2023/05/17 10:25:39;;;;;;;2.57;1.43;;;;;;;9.94;nan;99436.91;6191354;23;20168;-82
2023/05/17 10:28:06;;;;;;;2.30;1.60;;;;;;;9.88;nan;99421.75;6193393;23;20162;-82
2023/05/17 10:30:34;;;;;;;2.40;1.60;;;;;;;10.05;nan;99404.88;6219144;23;20228;-82
2023/05/17 10:33:03;;;;;;;2.90;1.60;;;;;;;10.07;nan;99402.81;6218740;23;20168;-82
2023/05/17 10:35:32;;;;;;;2.70;1.50;;;;;;;10.19;nan;99407.44;6219538;23;20169;-82
2023/05/17 10:37:58;;;;;;;3.40;1.53;;;;;;;10.19;nan;99415.47;6218912;23;20157;-82
2023/05/17 10:40:26;;;;;;;3.33;1.93;;;;;;;10.12;nan;99426.25;6219443;23;20162;-83
2023/05/17 10:42:55;;;;;;;2.87;1.70;;;;;;;10.24;nan;99432.53;6169206;23;20169;-80
2023/05/17 10:45:25;;;;;;;3.20;1.60;;;;;;;10.22;nan;99444.50;6218779;23;20220;-80
2023/05/17 10:47:54;;;;;;;2.70;1.40;;;;;;;10.24;nan;99434.38;6193162;23;20165;-82
2023/05/17 10:50:23;;;;;;;2.37;1.70;;;;;;;10.21;nan;99440.19;6219985;23;20213;-80
2023/05/17 10:52:51;;;;;;;2.40;2.00;;;;;;;10.25;nan;99436.84;6193202;23;20177;-80
2023/05/17 10:55:36;;;;;;;3.87;2.53;;;;;;;10.46;nan;99436.41;6220515;23;20794;-80
2023/05/17 10:58:19;;;;;;;2.27;1.40;;;;;;;10.32;nan;99434.91;6195248;23;20161;-80
2023/05/17 11:00:48;;;;;;;3.20;1.80;;;;;;;10.39;nan;99454.41;6220985;23;20653;-80
2023/05/17 11:03:28;;;;;;;2.40;1.50;;;;;;;10.46;nan;99454.31;6220510;23;20161;-79
2023/05/17 11:06:10;;;;;;;1.40;1.30;;;;;;;10.28;nan;99457.81;6220614;23;20225;-79
2023/05/17 11:09:15;;;;;;;2.00;1.40;;;;;;;10.31;nan;99443.97;6196786;23;20157;-80
2023/05/17 11:12:03;;;;;;;1.77;1.50;;;;;;;10.44;nan;99453.75;6219752;23;20526;-79
2023/05/17 11:14:50;;;;;;;1.80;1.30;;;;;;;10.45;nan;99447.34;6221385;23;20726;-82
2023/05/17 11:17:20;;;;;;;1.27;1.13;;;;;;;10.31;nan;99443.97;6199743;23;20217;-82
2023/05/17 11:19:55;;;;;;;1.50;1.30;;;;;;;10.35;nan;99458.56;6223703;23;20174;-82
2023/05/17 11:22:27;;;;;;;4.73;2.63;;;;;;;10.47;nan;99466.69;6224285;23;20170;-83
2023/05/17 11:24:56;;;;;;;6.70;4.70;;;;;;;10.50;nan;99463.53;6225034;23;20161;-81
2023/05/17 11:27:26;;;;;;;7.40;5.20;;;;;;;10.45;nan;99476.81;6224218;23;20162;-82
2023/05/17 11:29:57;;;;;;;3.40;2.30;;;;;;;10.47;nan;99474.72;6228597;23;20162;-84
2023/05/17 11:32:30;;;;;;;5.93;2.77;;;;;;;10.24;nan;99472.69;6208038;23;20165;-83
2023/05/17 11:34:59;;;;;;;4.43;2.00;;;;;;;10.16;nan;99483.69;6208156;23;20256;-82
2023/05/17 11:37:30;;;;;;;4.50;2.20;;;;;;;9.95;nan;99481.34;6233101;23;20165;-83
2023/05/17 11:40:03;;;;;;;3.37;1.73;;;;;;;10.13;nan;99494.78;6208026;23;20253;-83
2023/05/17 11:42:30;;;;;;;3.87;2.20;;;;;;;10.03;nan;99489.94;6206945;23;20146;-83
2023/05/17 11:45:00;;;;;;;4.63;2.10;;;;;;;9.94;nan;99496.59;6205302;23;20502;-83
2023/05/17 11:47:29;;;;;;;4.10;2.67;;;;;;;10.08;nan;99498.13;6205773;23;20161;-83
2023/05/17 11:50:00;;;;;;;4.13;2.33;;;;;;;10.06;nan;99499.38;6200243;23;20190;-83
2023/05/17 11:52:28;;;;;;;4.03;2.10;;;;;;;10.21;nan;99499.91;6200607;23;20599;-83
2023/05/17 11:54:56;;;;;;;4.47;2.33;;;;;;;10.00;nan;99514.47;6201293;23;20166;-83
2023/05/17 11:57:30;;;;;;;3.57;2.20;;;;;;;10.05;nan;99530.69;6175388;23;20174;-83
2023/05/17 12:00:00;;;;;;;4.33;2.20;;;;;;;10.10;nan;99519.31;6200193;23;20194;-83
2023/05/17 12:02:38;;;;;;;3.40;2.10;;;;;;;10.10;nan;99530.03;6202144;23;20154;-83
2023/05/17 12:05:05;;;;;;;3.23;2.10;;;;;;;10.01;nan;99518.78;6201948;23;20182;-83